sensor_id;sensor_type;location;lat;lon;timestamp;noise_LAeq;noise_LA_min;noise_LA_max;noise_LA01;noise_LA95
49215;Laerm;45943;53.148;8.204;2023-07-29T00:00:43;40.40;35.96;45.74;;
49215;Laerm;45943;53.148;8.204;2023-07-29T00:03:09;40.27;34.50;42.89;;
49215;Laerm;45943;53.148;8.204;2023-07-29T00:05:38;40.12;34.91;48.15;;
49215;Laerm;45943;53.148;8.204;2023-07-29T00:08:04;42.48;34.50;47.74;;
49215;Laerm;45943;53.148;8.204;2023-07-29T00:10:32;40.75;34.50;54.05;;
49215;Laerm;45943;53.148;8.204;2023-07-29T00:12:58;39.97;34.04;46.62;;
49215;Laerm;45943;53.148;8.204;2023-07-29T00:15:24;39.60;33.53;44.20;;
49215;Laerm;45943;53.148;8.204;2023-07-29T00:17:50;39.76;34.91;51.31;;
49215;Laerm;45943;53.148;8.204;2023-07-29T00:20:16;39.29;34.04;44.41;;
49215;Laerm;45943;53.148;8.204;2023-07-29T00:22:42;39.34;32.28;44.32;;
49215;Laerm;45943;53.148;8.204;2023-07-29T00:25:08;39.31;34.50;43.42;;
49215;Laerm;45943;53.148;8.204;2023-07-29T00:27:34;39.50;33.53;45.07;;
49215;Laerm;45943;53.148;8.204;2023-07-29T00:30:00;47.48;34.50;66.65;;
49215;Laerm;45943;53.148;8.204;2023-07-29T00:32:29;39.66;35.29;42.89;;
49215;Laerm;45943;53.148;8.204;2023-07-29T00:34:55;39.44;34.50;48.67;;
49215;Laerm;45943;53.148;8.204;2023-07-29T00:37:21;39.65;35.64;44.32;;
49215;Laerm;45943;53.148;8.204;2023-07-29T00:39:47;44.04;34.50;57.32;;
49215;Laerm;45943;53.148;8.204;2023-07-29T00:42:13;40.32;35.29;54.00;;
49215;Laerm;45943;53.148;8.204;2023-07-29T00:44:39;41.48;34.91;62.35;;
49215;Laerm;45943;53.148;8.204;2023-07-29T00:47:05;41.76;35.64;56.55;;
49215;Laerm;45943;53.148;8.204;2023-07-29T00:49:32;48.28;36.26;64.37;;
49215;Laerm;45943;53.148;8.204;2023-07-29T00:51:59;45.90;35.96;61.41;;
49215;Laerm;45943;53.148;8.204;2023-07-29T00:54:25;40.45;36.26;51.06;;
49215;Laerm;45943;53.148;8.204;2023-07-29T00:56:51;42.53;36.54;65.86;;
49215;Laerm;45943;53.148;8.204;2023-07-29T00:59:17;40.23;35.96;51.50;;
49215;Laerm;45943;53.148;8.204;2023-07-29T01:01:43;41.01;37.51;45.07;;
49215;Laerm;45943;53.148;8.204;2023-07-29T01:04:09;40.85;37.29;49.37;;
49215;Laerm;45943;53.148;8.204;2023-07-29T01:09:09;41.14;37.05;53.32;;
49215;Laerm;45943;53.148;8.204;2023-07-29T01:17:03;41.36;37.29;45.93;;
49215;Laerm;45943;53.148;8.204;2023-07-29T01:19:53;40.90;37.29;47.31;;
49215;Laerm;45943;53.148;8.204;2023-07-29T01:22:21;40.18;36.54;48.73;;
49215;Laerm;45943;53.148;8.204;2023-07-29T01:24:49;40.39;36.80;44.54;;
49215;Laerm;45943;53.148;8.204;2023-07-29T01:27:15;48.59;37.92;63.46;;
49215;Laerm;45943;53.148;8.204;2023-07-29T01:29:41;41.59;37.51;46.62;;
49215;Laerm;45943;53.148;8.204;2023-07-29T01:32:11;49.43;37.51;66.07;;
49215;Laerm;45943;53.148;8.204;2023-07-29T01:34:56;41.45;36.54;47.22;;
49215;Laerm;45943;53.148;8.204;2023-07-29T01:37:26;41.71;37.29;45.14;;
49215;Laerm;45943;53.148;8.204;2023-07-29T01:39:56;42.37;38.30;50.20;;
49215;Laerm;45943;53.148;8.204;2023-07-29T01:42:24;42.16;37.92;44.99;;
49215;Laerm;45943;53.148;8.204;2023-07-29T01:44:50;41.80;37.51;49.11;;
49215;Laerm;45943;53.148;8.204;2023-07-29T01:47:16;47.03;37.29;64.44;;
49215;Laerm;45943;53.148;8.204;2023-07-29T01:49:42;41.91;37.92;45.90;;
49215;Laerm;45943;53.148;8.204;2023-07-29T01:52:08;41.09;37.05;53.14;;
49215;Laerm;45943;53.148;8.204;2023-07-29T01:54:34;41.44;37.16;51.97;;
49215;Laerm;45943;53.148;8.204;2023-07-29T01:57:00;41.33;36.54;50.52;;
49215;Laerm;45943;53.148;8.204;2023-07-29T01:59:26;41.21;37.05;45.57;;
49215;Laerm;45943;53.148;8.204;2023-07-29T02:01:52;41.97;37.92;46.32;;
49215;Laerm;45943;53.148;8.204;2023-07-29T02:04:18;42.02;37.51;65.57;;
49215;Laerm;45943;53.148;8.204;2023-07-29T02:06:44;40.90;37.05;48.08;;
49215;Laerm;45943;53.148;8.204;2023-07-29T02:09:10;41.10;36.26;57.86;;
49215;Laerm;45943;53.148;8.204;2023-07-29T02:11:36;41.92;37.29;49.50;;
49215;Laerm;45943;53.148;8.204;2023-07-29T02:14:02;41.89;37.72;46.29;;
49215;Laerm;45943;53.148;8.204;2023-07-29T02:16:28;41.33;37.51;46.32;;
49215;Laerm;45943;53.148;8.204;2023-07-29T02:18:54;47.58;37.29;65.50;;
49215;Laerm;45943;53.148;8.204;2023-07-29T02:21:20;65.01;39.12;75.36;;
49215;Laerm;45943;53.148;8.204;2023-07-29T02:23:46;41.25;37.05;50.29;;
49215;Laerm;45943;53.148;8.204;2023-07-29T02:26:12;39.80;35.29;52.39;;
49215;Laerm;45943;53.148;8.204;2023-07-29T02:28:38;44.78;37.05;61.14;;
49215;Laerm;45943;53.148;8.204;2023-07-29T02:31:17;40.75;36.54;45.36;;
49215;Laerm;45943;53.148;8.204;2023-07-29T02:33:43;46.79;36.54;64.11;;
49215;Laerm;45943;53.148;8.204;2023-07-29T02:36:11;40.76;36.26;46.70;;
49215;Laerm;45943;53.148;8.204;2023-07-29T02:38:38;40.99;34.04;44.83;;
49215;Laerm;45943;53.148;8.204;2023-07-29T02:41:04;41.74;37.29;46.83;;
49215;Laerm;45943;53.148;8.204;2023-07-29T02:43:29;41.07;35.64;44.83;;
49215;Laerm;45943;53.148;8.204;2023-07-29T02:45:55;41.18;34.04;44.59;;
49215;Laerm;45943;53.148;8.204;2023-07-29T02:48:21;40.58;36.46;45.11;;
49215;Laerm;45943;53.148;8.204;2023-07-29T02:50:47;46.79;37.05;64.47;;
49215;Laerm;45943;53.148;8.204;2023-07-29T02:53:13;41.99;37.72;47.92;;
49215;Laerm;45943;53.148;8.204;2023-07-29T02:55:40;41.71;37.05;45.99;;
49215;Laerm;45943;53.148;8.204;2023-07-29T02:58:06;41.07;38.12;44.79;;
49215;Laerm;45943;53.148;8.204;2023-07-29T03:00:32;43.68;37.92;57.83;;
49215;Laerm;45943;53.148;8.204;2023-07-29T03:02:59;41.58;37.05;44.57;;
49215;Laerm;45943;53.148;8.204;2023-07-29T03:05:28;41.25;37.51;51.04;;
49215;Laerm;45943;53.148;8.204;2023-07-29T03:07:54;41.45;37.72;46.02;;
49215;Laerm;45943;53.148;8.204;2023-07-29T03:10:20;41.65;37.51;51.13;;
49215;Laerm;45943;53.148;8.204;2023-07-29T03:12:46;49.02;37.29;63.83;;
49215;Laerm;45943;53.148;8.204;2023-07-29T03:15:12;42.69;36.80;55.77;;
49215;Laerm;45943;53.148;8.204;2023-07-29T03:17:38;41.79;37.92;55.91;;
49215;Laerm;45943;53.148;8.204;2023-07-29T03:20:04;46.16;39.94;67.65;;
49215;Laerm;45943;53.148;8.204;2023-07-29T03:22:31;52.96;37.51;71.81;;
49215;Laerm;45943;53.148;8.204;2023-07-29T03:24:57;42.04;38.48;45.74;;
49215;Laerm;45943;53.148;8.204;2023-07-29T03:27:23;42.68;39.55;54.91;;
49215;Laerm;45943;53.148;8.204;2023-07-29T03:29:49;42.87;40.06;46.51;;
49215;Laerm;45943;53.148;8.204;2023-07-29T03:32:15;42.54;39.41;47.57;;
49215;Laerm;45943;53.148;8.204;2023-07-29T03:34:41;47.64;39.27;64.79;;
49215;Laerm;45943;53.148;8.204;2023-07-29T03:37:07;42.26;38.48;52.71;;
49215;Laerm;45943;53.148;8.204;2023-07-29T03:39:33;43.06;38.62;55.75;;
49215;Laerm;45943;53.148;8.204;2023-07-29T03:41:59;54.85;39.94;72.20;;
49215;Laerm;45943;53.148;8.204;2023-07-29T03:44:25;48.02;39.27;63.80;;
49215;Laerm;45943;53.148;8.204;2023-07-29T03:46:51;42.65;39.27;56.41;;
49215;Laerm;45943;53.148;8.204;2023-07-29T03:49:17;43.74;39.68;62.61;;
49215;Laerm;45943;53.148;8.204;2023-07-29T03:51:43;45.40;40.06;64.28;;
49215;Laerm;45943;53.148;8.204;2023-07-29T03:54:09;44.99;39.27;66.39;;
49215;Laerm;45943;53.148;8.204;2023-07-29T03:56:35;42.89;39.94;58.26;;
49215;Laerm;45943;53.148;8.204;2023-07-29T03:59:05;49.26;39.81;66.06;;
49215;Laerm;45943;53.148;8.204;2023-07-29T04:01:31;50.05;38.97;73.21;;
49215;Laerm;45943;53.148;8.204;2023-07-29T04:03:58;49.11;38.81;67.56;;
49215;Laerm;45943;53.148;8.204;2023-07-29T04:06:24;49.39;39.12;65.19;;
49215;Laerm;45943;53.148;8.204;2023-07-29T04:08:50;53.83;39.41;72.81;;
49215;Laerm;45943;53.148;8.204;2023-07-29T04:11:16;46.90;39.41;64.44;;
49215;Laerm;45943;53.148;8.204;2023-07-29T04:13:42;45.89;39.41;60.02;;
49215;Laerm;45943;53.148;8.204;2023-07-29T04:16:08;42.23;38.30;49.51;;
49215;Laerm;45943;53.148;8.204;2023-07-29T04:18:34;42.73;39.07;49.02;;
49215;Laerm;45943;53.148;8.204;2023-07-29T04:21:00;44.09;39.81;51.79;;
49215;Laerm;45943;53.148;8.204;2023-07-29T04:23:26;54.11;40.30;71.16;;
49215;Laerm;45943;53.148;8.204;2023-07-29T04:25:52;47.53;40.73;64.65;;
49215;Laerm;45943;53.148;8.204;2023-07-29T04:28:18;46.85;40.52;62.02;;
49215;Laerm;45943;53.148;8.204;2023-07-29T04:30:44;46.77;39.68;62.37;;
49215;Laerm;45943;53.148;8.204;2023-07-29T04:33:10;42.25;38.97;50.61;;
49215;Laerm;45943;53.148;8.204;2023-07-29T04:35:36;44.01;39.68;55.56;;
49215;Laerm;45943;53.148;8.204;2023-07-29T04:38:02;45.50;39.81;67.00;;
49215;Laerm;45943;53.148;8.204;2023-07-29T04:40:28;55.84;39.27;73.67;;
49215;Laerm;45943;53.148;8.204;2023-07-29T04:42:54;50.09;38.30;63.41;;
49215;Laerm;45943;53.148;8.204;2023-07-29T04:45:20;46.87;38.65;65.03;;
49215;Laerm;45943;53.148;8.204;2023-07-29T04:47:46;44.63;40.06;57.47;;
49215;Laerm;45943;53.148;8.204;2023-07-29T04:50:12;45.54;40.52;58.19;;
49215;Laerm;45943;53.148;8.204;2023-07-29T04:52:38;42.60;39.27;49.30;;
49215;Laerm;45943;53.148;8.204;2023-07-29T04:55:04;45.99;39.94;60.10;;
49215;Laerm;45943;53.148;8.204;2023-07-29T04:57:30;52.22;40.52;68.36;;
49215;Laerm;45943;53.148;8.204;2023-07-29T04:59:56;51.14;39.94;63.89;;
49215;Laerm;45943;53.148;8.204;2023-07-29T05:02:22;50.40;39.55;68.68;;
49215;Laerm;45943;53.148;8.204;2023-07-29T05:04:48;42.76;39.27;51.22;;
49215;Laerm;45943;53.148;8.204;2023-07-29T05:07:14;48.20;39.41;67.13;;
49215;Laerm;45943;53.148;8.204;2023-07-29T05:09:40;49.64;39.81;65.61;;
49215;Laerm;45943;53.148;8.204;2023-07-29T05:12:06;48.48;39.27;64.00;;
49215;Laerm;45943;53.148;8.204;2023-07-29T05:14:32;49.10;40.30;65.27;;
49215;Laerm;45943;53.148;8.204;2023-07-29T05:16:58;49.64;38.81;63.92;;
49215;Laerm;45943;53.148;8.204;2023-07-29T05:19:24;46.18;38.81;62.92;;
49215;Laerm;45943;53.148;8.204;2023-07-29T05:21:50;53.21;39.41;69.40;;
49215;Laerm;45943;53.148;8.204;2023-07-29T05:24:16;49.75;39.41;64.29;;
49215;Laerm;45943;53.148;8.204;2023-07-29T05:26:42;50.22;39.68;69.09;;
49215;Laerm;45943;53.148;8.204;2023-07-29T05:29:08;51.15;39.81;65.81;;
49215;Laerm;45943;53.148;8.204;2023-07-29T05:31:34;42.50;38.65;50.39;;
49215;Laerm;45943;53.148;8.204;2023-07-29T05:34:00;47.52;38.97;63.63;;
49215;Laerm;45943;53.148;8.204;2023-07-29T05:36:26;48.98;39.81;67.69;;
49215;Laerm;45943;53.148;8.204;2023-07-29T05:38:52;51.05;39.81;69.17;;
49215;Laerm;45943;53.148;8.204;2023-07-29T05:41:18;54.09;39.27;70.74;;
49215;Laerm;45943;53.148;8.204;2023-07-29T05:43:44;46.13;38.97;65.20;;
49215;Laerm;45943;53.148;8.204;2023-07-29T05:46:10;44.95;38.81;60.06;;
49215;Laerm;45943;53.148;8.204;2023-07-29T05:48:36;48.99;39.12;64.30;;
49215;Laerm;45943;53.148;8.204;2023-07-29T05:51:02;54.68;38.97;72.31;;
49215;Laerm;45943;53.148;8.204;2023-07-29T05:53:28;42.40;39.41;53.03;;
49215;Laerm;45943;53.148;8.204;2023-07-29T05:55:54;48.44;39.27;64.88;;
49215;Laerm;45943;53.148;8.204;2023-07-29T05:58:20;50.87;39.55;66.79;;
49215;Laerm;45943;53.148;8.204;2023-07-29T06:00:46;47.44;38.30;75.06;;
49215;Laerm;45943;53.148;8.204;2023-07-29T06:03:12;48.62;38.65;65.09;;
49215;Laerm;45943;53.148;8.204;2023-07-29T06:05:39;45.12;38.97;60.66;;
49215;Laerm;45943;53.148;8.204;2023-07-29T06:08:05;49.73;37.92;66.33;;
49215;Laerm;45943;53.148;8.204;2023-07-29T06:10:31;43.83;36.80;63.13;;
49215;Laerm;45943;53.148;8.204;2023-07-29T06:12:57;47.52;38.65;63.84;;
49215;Laerm;45943;53.148;8.204;2023-07-29T06:15:23;48.97;39.94;62.76;;
49215;Laerm;45943;53.148;8.204;2023-07-29T06:17:49;49.14;39.81;64.97;;
49215;Laerm;45943;53.148;8.204;2023-07-29T06:20:15;54.37;39.55;73.12;;
49215;Laerm;45943;53.148;8.204;2023-07-29T06:22:41;50.64;38.97;66.40;;
49215;Laerm;45943;53.148;8.204;2023-07-29T06:25:07;52.27;38.48;69.30;;
49215;Laerm;45943;53.148;8.204;2023-07-29T06:27:34;46.22;40.41;65.07;;
49215;Laerm;45943;53.148;8.204;2023-07-29T06:30:00;54.15;40.18;66.27;;
49215;Laerm;45943;53.148;8.204;2023-07-29T06:32:26;45.65;38.97;71.42;;
49215;Laerm;45943;53.148;8.204;2023-07-29T06:34:52;49.57;39.55;65.06;;
49215;Laerm;45943;53.148;8.204;2023-07-29T06:37:20;46.92;39.27;64.69;;
49215;Laerm;45943;53.148;8.204;2023-07-29T06:39:46;45.42;38.65;60.79;;
49215;Laerm;45943;53.148;8.204;2023-07-29T06:42:12;47.54;39.47;64.53;;
49215;Laerm;45943;53.148;8.204;2023-07-29T06:44:39;56.28;39.68;73.45;;
49215;Laerm;45943;53.148;8.204;2023-07-29T06:47:05;49.16;40.73;63.26;;
49215;Laerm;45943;53.148;8.204;2023-07-29T06:49:31;53.60;40.30;71.85;;
49215;Laerm;45943;53.148;8.204;2023-07-29T06:51:57;60.05;40.30;73.50;;
49215;Laerm;45943;53.148;8.204;2023-07-29T06:54:24;49.53;38.48;62.76;;
49215;Laerm;45943;53.148;8.204;2023-07-29T06:56:51;59.31;38.12;92.22;;
49215;Laerm;45943;53.148;8.204;2023-07-29T06:59:17;50.83;38.12;64.66;;
49215;Laerm;45943;53.148;8.204;2023-07-29T07:01:43;52.17;39.41;66.15;;
49215;Laerm;45943;53.148;8.204;2023-07-29T07:04:09;46.89;38.65;68.42;;
49215;Laerm;45943;53.148;8.204;2023-07-29T07:06:35;52.78;38.65;78.37;;
49215;Laerm;45943;53.148;8.204;2023-07-29T07:09:01;45.65;38.97;61.23;;
49215;Laerm;45943;53.148;8.204;2023-07-29T07:11:27;50.39;38.81;65.07;;
49215;Laerm;45943;53.148;8.204;2023-07-29T07:13:53;43.71;37.92;58.69;;
49215;Laerm;45943;53.148;8.204;2023-07-29T07:16:19;47.53;38.65;64.33;;
49215;Laerm;45943;53.148;8.204;2023-07-29T07:18:45;46.02;38.12;62.35;;
49215;Laerm;45943;53.148;8.204;2023-07-29T07:21:11;54.21;39.55;70.21;;
49215;Laerm;45943;53.148;8.204;2023-07-29T07:23:38;49.41;39.55;67.83;;
49215;Laerm;45943;53.148;8.204;2023-07-29T07:26:05;45.67;39.12;68.16;;
49215;Laerm;45943;53.148;8.204;2023-07-29T07:28:30;49.59;39.55;64.69;;
49215;Laerm;45943;53.148;8.204;2023-07-29T07:30:56;49.67;39.27;65.58;;
49215;Laerm;45943;53.148;8.204;2023-07-29T07:33:23;42.67;38.97;55.18;;
49215;Laerm;45943;53.148;8.204;2023-07-29T07:35:49;48.11;39.81;61.55;;
49215;Laerm;45943;53.148;8.204;2023-07-29T07:38:14;53.18;39.68;70.93;;
49215;Laerm;45943;53.148;8.204;2023-07-29T07:40:40;56.15;41.49;71.37;;
49215;Laerm;45943;53.148;8.204;2023-07-29T07:43:06;50.21;40.30;65.72;;
49215;Laerm;45943;53.148;8.204;2023-07-29T07:45:32;50.19;39.27;75.94;;
49215;Laerm;45943;53.148;8.204;2023-07-29T07:47:58;52.96;39.94;68.15;;
49215;Laerm;45943;53.148;8.204;2023-07-29T07:50:24;48.80;39.68;60.88;;
49215;Laerm;45943;53.148;8.204;2023-07-29T07:52:50;49.28;39.81;68.38;;
49215;Laerm;45943;53.148;8.204;2023-07-29T07:55:16;52.14;40.06;64.31;;
49215;Laerm;45943;53.148;8.204;2023-07-29T07:57:42;51.12;39.41;64.93;;
49215;Laerm;45943;53.148;8.204;2023-07-29T08:00:09;52.01;39.12;70.37;;
49215;Laerm;45943;53.148;8.204;2023-07-29T08:02:35;51.38;38.48;67.82;;
49215;Laerm;45943;53.148;8.204;2023-07-29T08:05:01;59.47;39.41;79.86;;
49215;Laerm;45943;53.148;8.204;2023-07-29T08:07:27;42.44;39.55;55.75;;
49215;Laerm;45943;53.148;8.204;2023-07-29T08:09:53;50.52;41.03;71.45;;
49215;Laerm;45943;53.148;8.204;2023-07-29T08:12:19;47.24;40.06;62.43;;
49215;Laerm;45943;53.148;8.204;2023-07-29T08:14:45;47.98;39.27;62.37;;
49215;Laerm;45943;53.148;8.204;2023-07-29T08:17:11;46.64;39.55;61.60;;
49215;Laerm;45943;53.148;8.204;2023-07-29T08:19:37;42.77;38.12;54.40;;
49215;Laerm;45943;53.148;8.204;2023-07-29T08:22:03;50.71;39.41;68.58;;
49215;Laerm;45943;53.148;8.204;2023-07-29T08:24:29;56.31;40.52;71.99;;
49215;Laerm;45943;53.148;8.204;2023-07-29T08:26:55;49.31;40.52;64.14;;
49215;Laerm;45943;53.148;8.204;2023-07-29T08:29:21;49.38;40.06;68.20;;
49215;Laerm;45943;53.148;8.204;2023-07-29T08:31:47;48.42;39.81;63.11;;
49215;Laerm;45943;53.148;8.204;2023-07-29T08:34:14;47.33;39.68;61.90;;
49215;Laerm;45943;53.148;8.204;2023-07-29T08:36:40;50.78;39.27;68.66;;
49215;Laerm;45943;53.148;8.204;2023-07-29T08:39:06;54.47;40.17;74.39;;
49215;Laerm;45943;53.148;8.204;2023-07-29T08:41:57;57.91;40.30;75.48;;
49215;Laerm;45943;53.148;8.204;2023-07-29T08:44:26;46.88;40.52;60.31;;
49215;Laerm;45943;53.148;8.204;2023-07-29T08:46:56;48.34;40.52;63.43;;
49215;Laerm;45943;53.148;8.204;2023-07-29T08:49:23;49.79;40.52;61.56;;
49215;Laerm;45943;53.148;8.204;2023-07-29T08:51:50;53.39;39.55;69.68;;
49215;Laerm;45943;53.148;8.204;2023-07-29T08:54:19;49.15;40.83;63.80;;
49215;Laerm;45943;53.148;8.204;2023-07-29T08:56:45;52.73;41.40;65.50;;
49215;Laerm;45943;53.148;8.204;2023-07-29T08:59:13;51.16;41.31;65.45;;
49215;Laerm;45943;53.148;8.204;2023-07-29T09:01:39;50.48;41.66;66.46;;
49215;Laerm;45943;53.148;8.204;2023-07-29T09:04:05;55.55;41.22;80.59;;
49215;Laerm;45943;53.148;8.204;2023-07-29T09:06:31;58.77;40.73;87.50;;
49215;Laerm;45943;53.148;8.204;2023-07-29T09:08:58;58.09;40.83;80.93;;
49215;Laerm;45943;53.148;8.204;2023-07-29T09:11:24;55.12;40.73;80.64;;
49215;Laerm;45943;53.148;8.204;2023-07-29T09:13:50;56.96;41.13;81.82;;
49215;Laerm;45943;53.148;8.204;2023-07-29T09:16:16;51.53;40.83;68.69;;
49215;Laerm;45943;53.148;8.204;2023-07-29T09:18:42;58.01;41.98;86.91;;
49215;Laerm;45943;53.148;8.204;2023-07-29T09:21:09;59.77;42.89;82.85;;
49215;Laerm;45943;53.148;8.204;2023-07-29T09:23:42;57.20;42.13;69.51;;
49215;Laerm;45943;53.148;8.204;2023-07-29T09:26:08;51.05;41.98;64.21;;
49215;Laerm;45943;53.148;8.204;2023-07-29T09:28:36;56.10;41.58;72.78;;
49215;Laerm;45943;53.148;8.204;2023-07-29T09:31:02;54.68;43.42;67.01;;
49215;Laerm;45943;53.148;8.204;2023-07-29T09:33:30;50.23;42.42;72.13;;
49215;Laerm;45943;53.148;8.204;2023-07-29T09:36:00;50.21;42.42;66.17;;
49215;Laerm;45943;53.148;8.204;2023-07-29T09:38:28;61.47;42.76;82.66;;
49215;Laerm;45943;53.148;8.204;2023-07-29T09:40:57;54.94;42.69;69.38;;
49215;Laerm;45943;53.148;8.204;2023-07-29T09:43:31;49.48;42.42;63.85;;
49215;Laerm;45943;53.148;8.204;2023-07-29T09:46:02;48.59;42.13;66.84;;
49215;Laerm;45943;53.148;8.204;2023-07-29T09:48:35;55.63;41.90;72.53;;
49215;Laerm;45943;53.148;8.204;2023-07-29T09:51:14;53.25;40.93;69.71;;
49215;Laerm;45943;53.148;8.204;2023-07-29T09:53:46;53.83;43.07;68.00;;
49215;Laerm;45943;53.148;8.204;2023-07-29T09:56:14;53.33;42.35;68.55;;
49215;Laerm;45943;53.148;8.204;2023-07-29T09:58:43;50.05;41.31;70.20;;
49215;Laerm;45943;53.148;8.204;2023-07-29T10:01:11;53.88;41.90;70.80;;
49215;Laerm;45943;53.148;8.204;2023-07-29T10:03:37;54.51;42.76;72.23;;
49215;Laerm;45943;53.148;8.204;2023-07-29T10:06:05;50.61;41.90;66.11;;
49215;Laerm;45943;53.148;8.204;2023-07-29T10:08:32;50.61;41.98;67.82;;
49215;Laerm;45943;53.148;8.204;2023-07-29T10:11:01;54.36;41.66;70.84;;
49215;Laerm;45943;53.148;8.204;2023-07-29T10:13:27;50.89;42.49;66.37;;
49215;Laerm;45943;53.148;8.204;2023-07-29T10:15:54;52.27;41.74;68.62;;
49215;Laerm;45943;53.148;8.204;2023-07-29T10:18:25;51.14;41.22;66.44;;
49215;Laerm;45943;53.148;8.204;2023-07-29T10:20:52;48.49;41.66;64.89;;
49215;Laerm;45943;53.148;8.204;2023-07-29T10:23:18;56.77;42.89;82.37;;
49215;Laerm;45943;53.148;8.204;2023-07-29T10:25:50;60.07;40.83;81.93;;
49215;Laerm;45943;53.148;8.204;2023-07-29T10:28:20;58.58;40.83;87.86;;
49215;Laerm;45943;53.148;8.204;2023-07-29T10:30:46;56.05;41.13;80.12;;
49215;Laerm;45943;53.148;8.204;2023-07-29T10:33:13;53.47;40.83;78.61;;
49215;Laerm;45943;53.148;8.204;2023-07-29T10:35:39;57.53;40.30;82.45;;
49215;Laerm;45943;53.148;8.204;2023-07-29T10:38:06;59.41;43.31;71.70;;
49215;Laerm;45943;53.148;8.204;2023-07-29T10:40:47;54.45;42.56;69.47;;
49215;Laerm;45943;53.148;8.204;2023-07-29T10:43:19;50.74;42.69;66.03;;
49215;Laerm;45943;53.148;8.204;2023-07-29T10:45:45;50.12;42.42;64.66;;
49215;Laerm;45943;53.148;8.204;2023-07-29T10:48:12;50.50;42.82;63.65;;
49215;Laerm;45943;53.148;8.204;2023-07-29T10:50:39;52.57;43.25;67.30;;
49215;Laerm;45943;53.148;8.204;2023-07-29T10:53:05;52.60;43.31;65.00;;
49215;Laerm;45943;53.148;8.204;2023-07-29T10:55:35;51.72;42.69;65.50;;
49215;Laerm;45943;53.148;8.204;2023-07-29T10:58:13;53.20;42.13;72.91;;
49215;Laerm;45943;53.148;8.204;2023-07-29T11:00:44;53.14;42.73;67.97;;
49215;Laerm;45943;53.148;8.204;2023-07-29T11:03:12;54.53;42.41;69.93;;
49215;Laerm;45943;53.148;8.204;2023-07-29T11:05:53;52.97;42.49;65.95;;
49215;Laerm;45943;53.148;8.204;2023-07-29T11:13:28;48.86;42.06;64.90;;
49215;Laerm;45943;53.148;8.204;2023-07-29T11:15:54;49.76;42.35;63.97;;
49215;Laerm;45943;53.148;8.204;2023-07-29T11:18:21;53.77;41.66;68.80;;
49215;Laerm;45943;53.148;8.204;2023-07-29T11:20:47;54.50;41.66;68.50;;
49215;Laerm;45943;53.148;8.204;2023-07-29T11:23:13;54.61;42.42;68.52;;
49215;Laerm;45943;53.148;8.204;2023-07-29T11:25:39;49.45;41.49;63.46;;
49215;Laerm;45943;53.148;8.204;2023-07-29T11:28:05;50.85;40.93;64.77;;
49215;Laerm;45943;53.148;8.204;2023-07-29T11:30:31;50.32;39.94;63.86;;
49215;Laerm;45943;53.148;8.204;2023-07-29T11:32:59;47.42;40.73;65.72;;
49215;Laerm;45943;53.148;8.204;2023-07-29T11:35:25;51.26;39.81;66.42;;
49215;Laerm;45943;53.148;8.204;2023-07-29T11:37:53;51.08;39.81;68.33;;
49215;Laerm;45943;53.148;8.204;2023-07-29T11:40:21;55.07;40.30;70.91;;
49215;Laerm;45943;53.148;8.204;2023-07-29T11:42:48;47.84;40.87;66.72;;
49215;Laerm;45943;53.148;8.204;2023-07-29T11:45:16;52.94;41.66;67.37;;
49215;Laerm;45943;53.148;8.204;2023-07-29T11:47:42;54.09;40.83;78.72;;
49215;Laerm;45943;53.148;8.204;2023-07-29T11:50:10;57.61;41.98;78.59;;
49215;Laerm;45943;53.148;8.204;2023-07-29T11:52:37;54.90;41.22;72.70;;
49215;Laerm;45943;53.148;8.204;2023-07-29T11:55:04;47.80;40.41;61.10;;
49215;Laerm;45943;53.148;8.204;2023-07-29T11:57:31;48.77;41.13;63.46;;
49215;Laerm;45943;53.148;8.204;2023-07-29T11:59:59;47.73;42.28;69.62;;
49215;Laerm;45943;53.148;8.204;2023-07-29T12:02:25;51.90;42.13;66.38;;
49215;Laerm;45943;53.148;8.204;2023-07-29T12:04:52;54.87;40.96;72.92;;
49215;Laerm;45943;53.148;8.204;2023-07-29T12:07:19;49.42;39.68;67.13;;
49215;Laerm;45943;53.148;8.204;2023-07-29T12:09:46;51.52;38.81;67.96;;
49215;Laerm;45943;53.148;8.204;2023-07-29T12:12:12;51.41;40.41;68.60;;
49215;Laerm;45943;53.148;8.204;2023-07-29T12:14:43;49.11;40.93;66.39;;
49215;Laerm;45943;53.148;8.204;2023-07-29T12:17:09;55.90;41.58;74.08;;
49215;Laerm;45943;53.148;8.204;2023-07-29T12:19:36;54.71;41.90;73.61;;
49215;Laerm;45943;53.148;8.204;2023-07-29T12:22:04;55.90;39.81;72.21;;
49215;Laerm;45943;53.148;8.204;2023-07-29T12:24:31;52.42;40.73;69.65;;
49215;Laerm;45943;53.148;8.204;2023-07-29T12:26:58;49.86;41.49;64.72;;
49215;Laerm;45943;53.148;8.204;2023-07-29T12:29:24;47.22;41.40;65.44;;
49215;Laerm;45943;53.148;8.204;2023-07-29T12:31:57;50.09;41.03;65.27;;
49215;Laerm;45943;53.148;8.204;2023-07-29T12:34:26;46.81;40.96;63.55;;
49215;Laerm;45943;53.148;8.204;2023-07-29T12:36:54;52.74;41.58;67.37;;
49215;Laerm;45943;53.148;8.204;2023-07-29T12:41:49;56.13;41.49;72.07;;
49215;Laerm;45943;53.148;8.204;2023-07-29T12:44:16;52.97;43.58;69.54;;
49215;Laerm;45943;53.148;8.204;2023-07-29T12:46:42;48.51;42.28;68.83;;
49215;Laerm;45943;53.148;8.204;2023-07-29T12:49:09;53.00;41.58;72.86;;
49215;Laerm;45943;53.148;8.204;2023-07-29T12:51:35;47.97;41.13;70.06;;
49215;Laerm;45943;53.148;8.204;2023-07-29T12:54:02;45.64;41.13;62.72;;
49215;Laerm;45943;53.148;8.204;2023-07-29T12:56:28;52.20;41.40;70.35;;
49215;Laerm;45943;53.148;8.204;2023-07-29T12:58:57;56.23;41.31;82.01;;
49215;Laerm;45943;53.148;8.204;2023-07-29T13:01:24;55.34;41.98;82.01;;
49215;Laerm;45943;53.148;8.204;2023-07-29T13:03:50;49.18;41.22;64.04;;
49215;Laerm;45943;53.148;8.204;2023-07-29T13:06:16;49.64;43.89;60.96;;
49215;Laerm;45943;53.148;8.204;2023-07-29T13:08:43;44.36;41.22;50.40;;
49215;Laerm;45943;53.148;8.204;2023-07-29T13:11:09;52.00;41.90;66.19;;
49215;Laerm;45943;53.148;8.204;2023-07-29T13:13:35;53.59;48.68;65.10;;
49215;Laerm;45943;53.148;8.204;2023-07-29T13:16:01;53.58;47.55;63.22;;
49215;Laerm;45943;53.148;8.204;2023-07-29T13:18:28;55.98;47.84;71.32;;
49215;Laerm;45943;53.148;8.204;2023-07-29T13:20:54;58.62;48.25;75.83;;
49215;Laerm;45943;53.148;8.204;2023-07-29T13:23:20;53.26;48.36;63.35;;
49215;Laerm;45943;53.148;8.204;2023-07-29T13:25:47;56.57;46.93;76.37;;
49215;Laerm;45943;53.148;8.204;2023-07-29T13:28:13;54.10;47.92;66.99;;
49215;Laerm;45943;53.148;8.204;2023-07-29T13:30:40;53.23;47.78;65.10;;
49215;Laerm;45943;53.148;8.204;2023-07-29T13:33:06;50.24;41.98;67.52;;
49215;Laerm;45943;53.148;8.204;2023-07-29T13:35:33;55.49;41.98;76.16;;
49215;Laerm;45943;53.148;8.204;2023-07-29T13:38:00;50.19;43.07;67.01;;
49215;Laerm;45943;53.148;8.204;2023-07-29T13:40:26;55.24;43.64;69.69;;
49215;Laerm;45943;53.148;8.204;2023-07-29T13:42:53;47.85;43.13;60.53;;
49215;Laerm;45943;53.148;8.204;2023-07-29T13:45:19;50.04;43.01;66.25;;
49215;Laerm;45943;53.148;8.204;2023-07-29T13:47:45;50.98;42.82;67.13;;
49215;Laerm;45943;53.148;8.204;2023-07-29T13:50:11;49.01;41.31;63.23;;
49215;Laerm;45943;53.148;8.204;2023-07-29T13:52:38;49.55;41.40;64.11;;
49215;Laerm;45943;53.148;8.204;2023-07-29T13:55:04;52.67;41.49;68.93;;
49215;Laerm;45943;53.148;8.204;2023-07-29T13:57:31;48.86;40.93;63.54;;